Koekelare, Belgium
Current Conditions -  °F | °C
As of 6:20 AM on Friday 28 Nov 2014 (Local Time) from EBOS Reporting Station
Clear Clear  
Wind Chill: 41°   Ceiling: Unl
Heat Index: 46°   Visibility: 4mi
Dew Point: 46°   Wind: 10mph
Humidity: 100%   Direction: 90°E
Pressure: 29.62"   Gusts: NA
Location:  51.09°N, 2.98°E
Report Text: EBOS 280520Z 09009KT 6000 NSC 08/08 Q1003 TEMPO 4000 BR
Loading
Personal Weather Stations






























Interactive Weather Map New forecast layout! Learn more

10-Day Weather Forecast

Advertisements
Track Severe Weather on mobile